sensor_id;sensor_type;location;lat;lon;timestamp;P1;durP1;ratioP1;P2;durP2;ratioP2
18102;SDS011;9178;51.120;6.192;2024-01-30T00:00:25;11.33;;;8.30;;
18102;SDS011;9178;51.120;6.192;2024-01-30T00:02:53;11.33;;;8.87;;
18102;SDS011;9178;51.120;6.192;2024-01-30T00:05:20;10.17;;;8.00;;
18102;SDS011;9178;51.120;6.192;2024-01-30T00:07:47;11.33;;;7.90;;
18102;SDS011;9178;51.120;6.192;2024-01-30T00:10:17;9.83;;;7.80;;
18102;SDS011;9178;51.120;6.192;2024-01-30T00:12:44;8.93;;;7.37;;
18102;SDS011;9178;51.120;6.192;2024-01-30T00:15:11;11.13;;;7.93;;
18102;SDS011;9178;51.120;6.192;2024-01-30T00:17:40;9.77;;;8.13;;
18102;SDS011;9178;51.120;6.192;2024-01-30T00:20:10;12.70;;;9.00;;
18102;SDS011;9178;51.120;6.192;2024-01-30T00:22:37;12.80;;;8.10;;
18102;SDS011;9178;51.120;6.192;2024-01-30T00:25:05;11.87;;;8.40;;
18102;SDS011;9178;51.120;6.192;2024-01-30T00:27:33;10.77;;;7.80;;
18102;SDS011;9178;51.120;6.192;2024-01-30T00:30:03;12.60;;;8.13;;
18102;SDS011;9178;51.120;6.192;2024-01-30T00:32:34;11.63;;;8.57;;
18102;SDS011;9178;51.120;6.192;2024-01-30T00:35:04;11.90;;;8.20;;
18102;SDS011;9178;51.120;6.192;2024-01-30T00:37:36;11.10;;;8.43;;
18102;SDS011;9178;51.120;6.192;2024-01-30T00:40:03;10.03;;;8.30;;
18102;SDS011;9178;51.120;6.192;2024-01-30T00:42:31;10.10;;;8.20;;
18102;SDS011;9178;51.120;6.192;2024-01-30T00:44:58;13.80;;;8.17;;
18102;SDS011;9178;51.120;6.192;2024-01-30T00:47:25;11.97;;;8.30;;
18102;SDS011;9178;51.120;6.192;2024-01-30T00:49:52;10.13;;;8.20;;
18102;SDS011;9178;51.120;6.192;2024-01-30T00:52:19;9.30;;;8.30;;
18102;SDS011;9178;51.120;6.192;2024-01-30T00:54:50;10.90;;;8.80;;
18102;SDS011;9178;51.120;6.192;2024-01-30T00:57:17;12.37;;;8.40;;
18102;SDS011;9178;51.120;6.192;2024-01-30T00:59:44;10.20;;;8.30;;
18102;SDS011;9178;51.120;6.192;2024-01-30T01:02:14;13.40;;;8.80;;
18102;SDS011;9178;51.120;6.192;2024-01-30T01:04:42;15.13;;;9.20;;
18102;SDS011;9178;51.120;6.192;2024-01-30T01:07:09;14.67;;;8.20;;
18102;SDS011;9178;51.120;6.192;2024-01-30T01:09:37;11.53;;;8.60;;
18102;SDS011;9178;51.120;6.192;2024-01-30T01:12:06;10.70;;;7.93;;
18102;SDS011;9178;51.120;6.192;2024-01-30T01:14:33;11.17;;;8.10;;
18102;SDS011;9178;51.120;6.192;2024-01-30T01:17:04;12.43;;;8.43;;
18102;SDS011;9178;51.120;6.192;2024-01-30T01:19:35;9.53;;;7.77;;
18102;SDS011;9178;51.120;6.192;2024-01-30T01:22:02;11.27;;;7.90;;
18102;SDS011;9178;51.120;6.192;2024-01-30T01:24:31;11.20;;;7.60;;
18102;SDS011;9178;51.120;6.192;2024-01-30T01:26:59;12.03;;;6.93;;
18102;SDS011;9178;51.120;6.192;2024-01-30T01:29:28;10.60;;;6.77;;
18102;SDS011;9178;51.120;6.192;2024-01-30T01:31:55;8.63;;;6.30;;
18102;SDS011;9178;51.120;6.192;2024-01-30T01:34:22;9.03;;;7.13;;
18102;SDS011;9178;51.120;6.192;2024-01-30T01:36:50;8.50;;;6.90;;
18102;SDS011;9178;51.120;6.192;2024-01-30T01:39:20;12.20;;;6.00;;
18102;SDS011;9178;51.120;6.192;2024-01-30T01:41:48;7.37;;;6.13;;
18102;SDS011;9178;51.120;6.192;2024-01-30T01:44:15;8.03;;;6.50;;
18102;SDS011;9178;51.120;6.192;2024-01-30T01:46:43;8.43;;;6.30;;
18102;SDS011;9178;51.120;6.192;2024-01-30T01:49:11;9.60;;;7.13;;
18102;SDS011;9178;51.120;6.192;2024-01-30T01:51:37;8.77;;;6.30;;
18102;SDS011;9178;51.120;6.192;2024-01-30T01:54:06;10.37;;;6.77;;
18102;SDS011;9178;51.120;6.192;2024-01-30T01:56:34;7.50;;;6.70;;
18102;SDS011;9178;51.120;6.192;2024-01-30T01:59:04;10.07;;;7.07;;
18102;SDS011;9178;51.120;6.192;2024-01-30T02:01:32;8.13;;;6.47;;
18102;SDS011;9178;51.120;6.192;2024-01-30T02:04:01;8.93;;;6.60;;
18102;SDS011;9178;51.120;6.192;2024-01-30T02:06:28;8.23;;;7.00;;
18102;SDS011;9178;51.120;6.192;2024-01-30T02:08:56;10.27;;;6.27;;
18102;SDS011;9178;51.120;6.192;2024-01-30T02:11:23;9.20;;;6.93;;
18102;SDS011;9178;51.120;6.192;2024-01-30T02:13:50;9.80;;;6.80;;
18102;SDS011;9178;51.120;6.192;2024-01-30T02:16:17;9.90;;;6.77;;
18102;SDS011;9178;51.120;6.192;2024-01-30T02:18:44;8.37;;;6.80;;
18102;SDS011;9178;51.120;6.192;2024-01-30T02:21:14;8.00;;;6.47;;
18102;SDS011;9178;51.120;6.192;2024-01-30T02:23:42;11.13;;;6.70;;
18102;SDS011;9178;51.120;6.192;2024-01-30T02:26:10;7.93;;;6.60;;
18102;SDS011;9178;51.120;6.192;2024-01-30T02:28:37;10.33;;;6.73;;
18102;SDS011;9178;51.120;6.192;2024-01-30T02:31:04;7.93;;;6.50;;
18102;SDS011;9178;51.120;6.192;2024-01-30T02:33:31;8.13;;;6.07;;
18102;SDS011;9178;51.120;6.192;2024-01-30T02:35:59;8.30;;;6.17;;
18102;SDS011;9178;51.120;6.192;2024-01-30T02:38:27;7.80;;;6.17;;
18102;SDS011;9178;51.120;6.192;2024-01-30T02:40:55;8.83;;;6.20;;
18102;SDS011;9178;51.120;6.192;2024-01-30T02:43:22;7.27;;;5.90;;
18102;SDS011;9178;51.120;6.192;2024-01-30T02:45:49;7.80;;;6.50;;
18102;SDS011;9178;51.120;6.192;2024-01-30T02:48:16;7.67;;;6.27;;
18102;SDS011;9178;51.120;6.192;2024-01-30T02:50:43;7.47;;;6.17;;
18102;SDS011;9178;51.120;6.192;2024-01-30T02:53:11;8.77;;;6.37;;
18102;SDS011;9178;51.120;6.192;2024-01-30T02:55:39;8.73;;;6.70;;
18102;SDS011;9178;51.120;6.192;2024-01-30T02:58:06;8.67;;;5.90;;
18102;SDS011;9178;51.120;6.192;2024-01-30T03:00:33;10.30;;;6.20;;
18102;SDS011;9178;51.120;6.192;2024-01-30T03:03:00;8.57;;;5.97;;
18102;SDS011;9178;51.120;6.192;2024-01-30T03:05:27;6.30;;;5.40;;
18102;SDS011;9178;51.120;6.192;2024-01-30T03:07:54;9.50;;;4.97;;
18102;SDS011;9178;51.120;6.192;2024-01-30T03:10:21;8.27;;;5.27;;
18102;SDS011;9178;51.120;6.192;2024-01-30T03:12:50;6.37;;;5.50;;
18102;SDS011;9178;51.120;6.192;2024-01-30T03:15:17;6.57;;;5.40;;
18102;SDS011;9178;51.120;6.192;2024-01-30T03:17:43;5.97;;;4.80;;
18102;SDS011;9178;51.120;6.192;2024-01-30T03:20:11;5.60;;;4.67;;
18102;SDS011;9178;51.120;6.192;2024-01-30T03:22:38;6.03;;;4.93;;
18102;SDS011;9178;51.120;6.192;2024-01-30T03:25:08;5.30;;;4.40;;
18102;SDS011;9178;51.120;6.192;2024-01-30T03:27:35;5.80;;;4.37;;
18102;SDS011;9178;51.120;6.192;2024-01-30T03:30:04;6.67;;;5.03;;
18102;SDS011;9178;51.120;6.192;2024-01-30T03:32:35;5.70;;;4.10;;
18102;SDS011;9178;51.120;6.192;2024-01-30T03:35:02;7.43;;;4.97;;
18102;SDS011;9178;51.120;6.192;2024-01-30T03:37:32;7.17;;;4.93;;
18102;SDS011;9178;51.120;6.192;2024-01-30T03:39:59;5.33;;;4.30;;
18102;SDS011;9178;51.120;6.192;2024-01-30T03:42:27;5.60;;;4.40;;
18102;SDS011;9178;51.120;6.192;2024-01-30T03:44:54;5.33;;;4.83;;
18102;SDS011;9178;51.120;6.192;2024-01-30T03:47:24;5.63;;;4.50;;
18102;SDS011;9178;51.120;6.192;2024-01-30T03:49:51;7.00;;;4.70;;
18102;SDS011;9178;51.120;6.192;2024-01-30T03:52:18;4.93;;;4.40;;
18102;SDS011;9178;51.120;6.192;2024-01-30T03:54:45;7.07;;;4.63;;
18102;SDS011;9178;51.120;6.192;2024-01-30T03:57:12;4.87;;;4.47;;
18102;SDS011;9178;51.120;6.192;2024-01-30T03:59:41;5.60;;;4.30;;
18102;SDS011;9178;51.120;6.192;2024-01-30T04:02:09;6.03;;;4.40;;
18102;SDS011;9178;51.120;6.192;2024-01-30T04:04:37;6.90;;;4.37;;
18102;SDS011;9178;51.120;6.192;2024-01-30T04:07:05;6.47;;;4.40;;
18102;SDS011;9178;51.120;6.192;2024-01-30T04:09:32;8.13;;;5.13;;
18102;SDS011;9178;51.120;6.192;2024-01-30T04:11:58;7.50;;;5.40;;
18102;SDS011;9178;51.120;6.192;2024-01-30T04:14:28;8.80;;;5.10;;
18102;SDS011;9178;51.120;6.192;2024-01-30T04:16:54;6.63;;;5.20;;
18102;SDS011;9178;51.120;6.192;2024-01-30T04:19:22;6.77;;;5.13;;
18102;SDS011;9178;51.120;6.192;2024-01-30T04:21:50;6.33;;;5.20;;
18102;SDS011;9178;51.120;6.192;2024-01-30T04:24:17;5.63;;;4.70;;
18102;SDS011;9178;51.120;6.192;2024-01-30T04:26:45;6.87;;;4.43;;
18102;SDS011;9178;51.120;6.192;2024-01-30T04:29:11;5.63;;;4.80;;
18102;SDS011;9178;51.120;6.192;2024-01-30T04:31:39;6.17;;;4.50;;
18102;SDS011;9178;51.120;6.192;2024-01-30T04:34:06;6.30;;;4.97;;
18102;SDS011;9178;51.120;6.192;2024-01-30T04:36:33;8.80;;;5.00;;
18102;SDS011;9178;51.120;6.192;2024-01-30T04:39:01;5.77;;;4.63;;
18102;SDS011;9178;51.120;6.192;2024-01-30T04:41:29;8.03;;;5.20;;
18102;SDS011;9178;51.120;6.192;2024-01-30T04:43:57;9.43;;;4.90;;
18102;SDS011;9178;51.120;6.192;2024-01-30T04:46:24;5.90;;;4.50;;
18102;SDS011;9178;51.120;6.192;2024-01-30T04:48:51;6.23;;;4.70;;
18102;SDS011;9178;51.120;6.192;2024-01-30T04:51:18;6.07;;;4.80;;
18102;SDS011;9178;51.120;6.192;2024-01-30T04:53:45;5.73;;;4.60;;
18102;SDS011;9178;51.120;6.192;2024-01-30T04:56:14;6.13;;;4.70;;
18102;SDS011;9178;51.120;6.192;2024-01-30T04:58:41;5.90;;;4.77;;
18102;SDS011;9178;51.120;6.192;2024-01-30T05:01:08;5.40;;;4.57;;
18102;SDS011;9178;51.120;6.192;2024-01-30T05:03:35;8.10;;;4.83;;
18102;SDS011;9178;51.120;6.192;2024-01-30T05:06:02;5.10;;;4.60;;
18102;SDS011;9178;51.120;6.192;2024-01-30T05:08:29;4.87;;;4.03;;
18102;SDS011;9178;51.120;6.192;2024-01-30T05:10:59;5.90;;;4.57;;
18102;SDS011;9178;51.120;6.192;2024-01-30T05:13:30;6.40;;;4.43;;
18102;SDS011;9178;51.120;6.192;2024-01-30T05:15:57;8.23;;;4.70;;
18102;SDS011;9178;51.120;6.192;2024-01-30T05:18:24;6.13;;;4.80;;
18102;SDS011;9178;51.120;6.192;2024-01-30T05:20:51;5.33;;;4.33;;
18102;SDS011;9178;51.120;6.192;2024-01-30T05:23:18;6.40;;;4.37;;
18102;SDS011;9178;51.120;6.192;2024-01-30T05:25:45;4.63;;;4.23;;
18102;SDS011;9178;51.120;6.192;2024-01-30T05:28:12;9.07;;;5.20;;
18102;SDS011;9178;51.120;6.192;2024-01-30T05:30:41;6.13;;;4.40;;
18102;SDS011;9178;51.120;6.192;2024-01-30T05:33:08;6.20;;;5.00;;
18102;SDS011;9178;51.120;6.192;2024-01-30T05:35:37;5.40;;;4.90;;
18102;SDS011;9178;51.120;6.192;2024-01-30T05:38:04;5.97;;;4.63;;
18102;SDS011;9178;51.120;6.192;2024-01-30T05:40:31;7.30;;;4.30;;
18102;SDS011;9178;51.120;6.192;2024-01-30T05:42:58;6.10;;;4.90;;
18102;SDS011;9178;51.120;6.192;2024-01-30T05:45:27;7.63;;;5.73;;
18102;SDS011;9178;51.120;6.192;2024-01-30T05:47:56;7.07;;;5.33;;
18102;SDS011;9178;51.120;6.192;2024-01-30T05:50:23;7.17;;;5.73;;
18102;SDS011;9178;51.120;6.192;2024-01-30T05:52:51;7.60;;;5.83;;
18102;SDS011;9178;51.120;6.192;2024-01-30T05:55:18;7.87;;;5.70;;
18102;SDS011;9178;51.120;6.192;2024-01-30T05:57:45;6.50;;;5.60;;
18102;SDS011;9178;51.120;6.192;2024-01-30T06:00:12;8.10;;;6.13;;
18102;SDS011;9178;51.120;6.192;2024-01-30T06:02:40;9.37;;;5.93;;
18102;SDS011;9178;51.120;6.192;2024-01-30T06:05:09;7.13;;;5.70;;
18102;SDS011;9178;51.120;6.192;2024-01-30T06:07:36;6.40;;;5.53;;
18102;SDS011;9178;51.120;6.192;2024-01-30T06:10:04;7.83;;;5.80;;
18102;SDS011;9178;51.120;6.192;2024-01-30T06:12:34;8.97;;;5.70;;
18102;SDS011;9178;51.120;6.192;2024-01-30T06:15:01;7.60;;;5.70;;
18102;SDS011;9178;51.120;6.192;2024-01-30T06:17:28;8.33;;;5.80;;
18102;SDS011;9178;51.120;6.192;2024-01-30T06:19:55;5.97;;;5.37;;
18102;SDS011;9178;51.120;6.192;2024-01-30T06:22:24;8.13;;;5.27;;
18102;SDS011;9178;51.120;6.192;2024-01-30T06:24:51;8.10;;;5.73;;
18102;SDS011;9178;51.120;6.192;2024-01-30T06:27:18;8.33;;;5.97;;
18102;SDS011;9178;51.120;6.192;2024-01-30T06:29:45;5.87;;;5.27;;
18102;SDS011;9178;51.120;6.192;2024-01-30T06:32:12;8.60;;;6.07;;
18102;SDS011;9178;51.120;6.192;2024-01-30T06:34:40;6.87;;;5.00;;
18102;SDS011;9178;51.120;6.192;2024-01-30T06:37:09;5.80;;;4.90;;
18102;SDS011;9178;51.120;6.192;2024-01-30T06:39:37;6.33;;;4.70;;
18102;SDS011;9178;51.120;6.192;2024-01-30T06:42:04;6.50;;;4.97;;
18102;SDS011;9178;51.120;6.192;2024-01-30T06:44:31;4.70;;;4.30;;
18102;SDS011;9178;51.120;6.192;2024-01-30T06:46:58;7.73;;;4.30;;
18102;SDS011;9178;51.120;6.192;2024-01-30T06:49:25;6.13;;;4.37;;
18102;SDS011;9178;51.120;6.192;2024-01-30T06:51:52;7.63;;;4.57;;
18102;SDS011;9178;51.120;6.192;2024-01-30T06:54:19;6.90;;;4.47;;
18102;SDS011;9178;51.120;6.192;2024-01-30T06:56:50;7.37;;;4.93;;
18102;SDS011;9178;51.120;6.192;2024-01-30T06:59:17;4.80;;;4.30;;
18102;SDS011;9178;51.120;6.192;2024-01-30T07:01:44;5.10;;;4.20;;
18102;SDS011;9178;51.120;6.192;2024-01-30T07:04:11;5.77;;;4.40;;
18102;SDS011;9178;51.120;6.192;2024-01-30T07:06:38;4.80;;;4.00;;
18102;SDS011;9178;51.120;6.192;2024-01-30T07:09:05;5.03;;;4.50;;
18102;SDS011;9178;51.120;6.192;2024-01-30T07:11:33;5.93;;;4.43;;
18102;SDS011;9178;51.120;6.192;2024-01-30T07:14:01;4.60;;;4.20;;
18102;SDS011;9178;51.120;6.192;2024-01-30T07:16:29;6.07;;;4.20;;
18102;SDS011;9178;51.120;6.192;2024-01-30T07:18:56;7.17;;;4.60;;
18102;SDS011;9178;51.120;6.192;2024-01-30T07:21:23;4.80;;;4.30;;
18102;SDS011;9178;51.120;6.192;2024-01-30T07:23:53;4.83;;;4.33;;
18102;SDS011;9178;51.120;6.192;2024-01-30T07:26:20;6.03;;;4.53;;
18102;SDS011;9178;51.120;6.192;2024-01-30T07:28:47;5.53;;;3.77;;
18102;SDS011;9178;51.120;6.192;2024-01-30T07:31:16;6.80;;;4.57;;
18102;SDS011;9178;51.120;6.192;2024-01-30T07:33:45;8.33;;;6.63;;
18102;SDS011;9178;51.120;6.192;2024-01-30T07:36:12;5.67;;;4.87;;
18102;SDS011;9178;51.120;6.192;2024-01-30T07:38:39;5.33;;;4.40;;
18102;SDS011;9178;51.120;6.192;2024-01-30T07:41:06;6.33;;;4.90;;
18102;SDS011;9178;51.120;6.192;2024-01-30T07:43:34;8.90;;;4.80;;
18102;SDS011;9178;51.120;6.192;2024-01-30T07:46:01;5.77;;;4.67;;
18102;SDS011;9178;51.120;6.192;2024-01-30T07:48:29;6.30;;;4.43;;
18102;SDS011;9178;51.120;6.192;2024-01-30T07:50:57;5.20;;;4.10;;
18102;SDS011;9178;51.120;6.192;2024-01-30T07:53:24;5.83;;;4.60;;
18102;SDS011;9178;51.120;6.192;2024-01-30T07:55:51;5.10;;;4.10;;
18102;SDS011;9178;51.120;6.192;2024-01-30T07:58:18;7.07;;;4.20;;
18102;SDS011;9178;51.120;6.192;2024-01-30T08:00:46;6.27;;;4.57;;
18102;SDS011;9178;51.120;6.192;2024-01-30T08:03:13;4.80;;;3.67;;
18102;SDS011;9178;51.120;6.192;2024-01-30T08:05:42;4.93;;;4.43;;
18102;SDS011;9178;51.120;6.192;2024-01-30T08:08:10;4.33;;;3.87;;
18102;SDS011;9178;51.120;6.192;2024-01-30T08:10:40;4.80;;;4.20;;
18102;SDS011;9178;51.120;6.192;2024-01-30T08:13:06;5.97;;;4.40;;
18102;SDS011;9178;51.120;6.192;2024-01-30T08:15:34;6.33;;;4.47;;
18102;SDS011;9178;51.120;6.192;2024-01-30T08:18:01;6.10;;;4.20;;
18102;SDS011;9178;51.120;6.192;2024-01-30T08:20:28;4.83;;;4.20;;
18102;SDS011;9178;51.120;6.192;2024-01-30T08:22:56;6.40;;;4.37;;
18102;SDS011;9178;51.120;6.192;2024-01-30T08:25:25;5.93;;;4.30;;
18102;SDS011;9178;51.120;6.192;2024-01-30T08:27:52;4.87;;;4.30;;
18102;SDS011;9178;51.120;6.192;2024-01-30T08:30:19;11.87;;;5.60;;
18102;SDS011;9178;51.120;6.192;2024-01-30T08:32:47;6.57;;;4.10;;
18102;SDS011;9178;51.120;6.192;2024-01-30T08:35:14;4.97;;;4.30;;
18102;SDS011;9178;51.120;6.192;2024-01-30T08:37:41;6.60;;;4.40;;
18102;SDS011;9178;51.120;6.192;2024-01-30T08:40:10;5.00;;;4.50;;
18102;SDS011;9178;51.120;6.192;2024-01-30T08:42:37;6.77;;;4.33;;
18102;SDS011;9178;51.120;6.192;2024-01-30T08:45:05;7.17;;;4.67;;
18102;SDS011;9178;51.120;6.192;2024-01-30T08:47:34;4.70;;;4.27;;
18102;SDS011;9178;51.120;6.192;2024-01-30T08:50:01;6.30;;;4.73;;
18102;SDS011;9178;51.120;6.192;2024-01-30T08:52:28;5.20;;;4.53;;
18102;SDS011;9178;51.120;6.192;2024-01-30T08:54:55;5.33;;;3.77;;
18102;SDS011;9178;51.120;6.192;2024-01-30T08:57:23;5.70;;;4.10;;
18102;SDS011;9178;51.120;6.192;2024-01-30T08:59:53;5.53;;;4.10;;
18102;SDS011;9178;51.120;6.192;2024-01-30T09:02:20;6.77;;;3.87;;
18102;SDS011;9178;51.120;6.192;2024-01-30T09:04:48;4.57;;;4.00;;
18102;SDS011;9178;51.120;6.192;2024-01-30T09:07:15;5.60;;;3.90;;
18102;SDS011;9178;51.120;6.192;2024-01-30T09:09:42;6.53;;;4.23;;
18102;SDS011;9178;51.120;6.192;2024-01-30T09:12:10;5.80;;;4.00;;
18102;SDS011;9178;51.120;6.192;2024-01-30T09:14:39;9.60;;;4.30;;
18102;SDS011;9178;51.120;6.192;2024-01-30T09:17:09;4.27;;;3.87;;
18102;SDS011;9178;51.120;6.192;2024-01-30T09:19:37;6.93;;;4.13;;
18102;SDS011;9178;51.120;6.192;2024-01-30T09:22:04;4.47;;;4.07;;
18102;SDS011;9178;51.120;6.192;2024-01-30T09:24:31;5.07;;;3.87;;
18102;SDS011;9178;51.120;6.192;2024-01-30T09:26:58;6.07;;;4.03;;
18102;SDS011;9178;51.120;6.192;2024-01-30T09:29:26;5.33;;;3.87;;
18102;SDS011;9178;51.120;6.192;2024-01-30T09:31:55;5.27;;;3.93;;
18102;SDS011;9178;51.120;6.192;2024-01-30T09:34:22;6.37;;;4.10;;
18102;SDS011;9178;51.120;6.192;2024-01-30T09:36:49;6.53;;;3.60;;
18102;SDS011;9178;51.120;6.192;2024-01-30T09:39:16;4.93;;;3.53;;
18102;SDS011;9178;51.120;6.192;2024-01-30T09:41:45;7.90;;;3.67;;
18102;SDS011;9178;51.120;6.192;2024-01-30T09:44:15;4.93;;;3.67;;
18102;SDS011;9178;51.120;6.192;2024-01-30T09:46:43;5.93;;;3.87;;
18102;SDS011;9178;51.120;6.192;2024-01-30T09:49:13;6.13;;;3.93;;
18102;SDS011;9178;51.120;6.192;2024-01-30T09:51:40;4.60;;;3.83;;
18102;SDS011;9178;51.120;6.192;2024-01-30T09:54:08;7.73;;;4.30;;
18102;SDS011;9178;51.120;6.192;2024-01-30T09:56:37;5.33;;;3.77;;
18102;SDS011;9178;51.120;6.192;2024-01-30T09:59:04;6.70;;;3.83;;
18102;SDS011;9178;51.120;6.192;2024-01-30T10:01:30;5.20;;;3.90;;
18102;SDS011;9178;51.120;6.192;2024-01-30T10:04:00;5.27;;;3.67;;
18102;SDS011;9178;51.120;6.192;2024-01-30T10:06:31;10.27;;;4.67;;
18102;SDS011;9178;51.120;6.192;2024-01-30T10:08:59;5.20;;;4.13;;
18102;SDS011;9178;51.120;6.192;2024-01-30T10:11:26;9.40;;;3.97;;
18102;SDS011;9178;51.120;6.192;2024-01-30T10:13:53;6.57;;;3.67;;
18102;SDS011;9178;51.120;6.192;2024-01-30T10:16:20;7.93;;;4.00;;
18102;SDS011;9178;51.120;6.192;2024-01-30T10:18:48;5.50;;;3.80;;
18102;SDS011;9178;51.120;6.192;2024-01-30T10:21:16;10.43;;;3.90;;
18102;SDS011;9178;51.120;6.192;2024-01-30T10:23:45;6.47;;;4.07;;
18102;SDS011;9178;51.120;6.192;2024-01-30T10:26:12;7.20;;;4.33;;
18102;SDS011;9178;51.120;6.192;2024-01-30T10:28:40;5.07;;;3.50;;
18102;SDS011;9178;51.120;6.192;2024-01-30T10:31:06;9.97;;;4.10;;
18102;SDS011;9178;51.120;6.192;2024-01-30T10:33:34;9.77;;;4.00;;
18102;SDS011;9178;51.120;6.192;2024-01-30T10:36:01;7.77;;;4.27;;
18102;SDS011;9178;51.120;6.192;2024-01-30T10:38:29;7.73;;;4.10;;
18102;SDS011;9178;51.120;6.192;2024-01-30T10:40:59;6.77;;;4.00;;
18102;SDS011;9178;51.120;6.192;2024-01-30T10:43:29;5.70;;;3.63;;
18102;SDS011;9178;51.120;6.192;2024-01-30T10:46:01;8.40;;;4.00;;
18102;SDS011;9178;51.120;6.192;2024-01-30T10:48:36;6.63;;;3.70;;
18102;SDS011;9178;51.120;6.192;2024-01-30T10:51:08;6.43;;;4.00;;
18102;SDS011;9178;51.120;6.192;2024-01-30T10:53:36;7.17;;;4.23;;
18102;SDS011;9178;51.120;6.192;2024-01-30T10:56:07;10.43;;;4.27;;
18102;SDS011;9178;51.120;6.192;2024-01-30T10:58:36;10.13;;;4.10;;
18102;SDS011;9178;51.120;6.192;2024-01-30T11:01:03;7.73;;;4.47;;
18102;SDS011;9178;51.120;6.192;2024-01-30T11:03:32;5.73;;;3.90;;
18102;SDS011;9178;51.120;6.192;2024-01-30T11:06:02;11.30;;;5.33;;
18102;SDS011;9178;51.120;6.192;2024-01-30T11:08:31;10.87;;;4.27;;
18102;SDS011;9178;51.120;6.192;2024-01-30T11:10:59;7.83;;;3.90;;
18102;SDS011;9178;51.120;6.192;2024-01-30T11:13:31;7.50;;;4.40;;
18102;SDS011;9178;51.120;6.192;2024-01-30T11:16:01;6.17;;;4.50;;
18102;SDS011;9178;51.120;6.192;2024-01-30T11:18:29;6.80;;;3.93;;
18102;SDS011;9178;51.120;6.192;2024-01-30T11:20:57;7.10;;;4.30;;
18102;SDS011;9178;51.120;6.192;2024-01-30T11:23:27;6.73;;;3.60;;
18102;SDS011;9178;51.120;6.192;2024-01-30T11:25:55;6.33;;;4.40;;
18102;SDS011;9178;51.120;6.192;2024-01-30T11:28:23;10.83;;;4.80;;
18102;SDS011;9178;51.120;6.192;2024-01-30T11:30:52;7.23;;;4.57;;
18102;SDS011;9178;51.120;6.192;2024-01-30T11:33:29;6.57;;;4.80;;
18102;SDS011;9178;51.120;6.192;2024-01-30T11:35:57;8.80;;;4.70;;
18102;SDS011;9178;51.120;6.192;2024-01-30T11:38:25;7.30;;;4.70;;
18102;SDS011;9178;51.120;6.192;2024-01-30T11:40:54;10.77;;;5.27;;
18102;SDS011;9178;51.120;6.192;2024-01-30T11:43:23;9.20;;;4.53;;
18102;SDS011;9178;51.120;6.192;2024-01-30T11:45:52;8.70;;;4.63;;
18102;SDS011;9178;51.120;6.192;2024-01-30T11:48:19;8.47;;;4.50;;
18102;SDS011;9178;51.120;6.192;2024-01-30T11:50:46;6.63;;;4.67;;
18102;SDS011;9178;51.120;6.192;2024-01-30T11:53:13;8.67;;;5.20;;
18102;SDS011;9178;51.120;6.192;2024-01-30T11:55:40;9.17;;;4.93;;
18102;SDS011;9178;51.120;6.192;2024-01-30T11:58:08;12.70;;;6.00;;
18102;SDS011;9178;51.120;6.192;2024-01-30T12:00:35;6.73;;;4.93;;
18102;SDS011;9178;51.120;6.192;2024-01-30T12:03:06;8.50;;;4.93;;
18102;SDS011;9178;51.120;6.192;2024-01-30T12:05:33;10.53;;;5.30;;
18102;SDS011;9178;51.120;6.192;2024-01-30T12:08:00;9.10;;;5.37;;
18102;SDS011;9178;51.120;6.192;2024-01-30T12:10:27;8.07;;;5.27;;
18102;SDS011;9178;51.120;6.192;2024-01-30T12:12:57;11.83;;;5.00;;
18102;SDS011;9178;51.120;6.192;2024-01-30T12:15:24;7.83;;;4.73;;
18102;SDS011;9178;51.120;6.192;2024-01-30T12:17:52;7.20;;;4.80;;
18102;SDS011;9178;51.120;6.192;2024-01-30T12:20:31;7.03;;;5.07;;
18102;SDS011;9178;51.120;6.192;2024-01-30T12:22:57;9.10;;;4.83;;
18102;SDS011;9178;51.120;6.192;2024-01-30T12:25:24;17.50;;;5.43;;
18102;SDS011;9178;51.120;6.192;2024-01-30T12:27:52;8.60;;;5.37;;
18102;SDS011;9178;51.120;6.192;2024-01-30T12:30:19;8.30;;;5.23;;
18102;SDS011;9178;51.120;6.192;2024-01-30T12:32:47;8.50;;;4.90;;
18102;SDS011;9178;51.120;6.192;2024-01-30T12:35:17;7.17;;;5.13;;
18102;SDS011;9178;51.120;6.192;2024-01-30T12:37:47;7.83;;;5.23;;
18102;SDS011;9178;51.120;6.192;2024-01-30T12:40:15;12.07;;;5.90;;
18102;SDS011;9178;51.120;6.192;2024-01-30T12:42:43;8.70;;;5.17;;
18102;SDS011;9178;51.120;6.192;2024-01-30T12:45:14;8.90;;;5.23;;
18102;SDS011;9178;51.120;6.192;2024-01-30T12:47:41;9.37;;;5.23;;
18102;SDS011;9178;51.120;6.192;2024-01-30T12:50:08;7.73;;;5.40;;
18102;SDS011;9178;51.120;6.192;2024-01-30T12:52:37;11.07;;;5.77;;
18102;SDS011;9178;51.120;6.192;2024-01-30T12:55:06;7.93;;;4.90;;
18102;SDS011;9178;51.120;6.192;2024-01-30T12:57:33;7.47;;;5.47;;
18102;SDS011;9178;51.120;6.192;2024-01-30T13:00:00;9.33;;;5.87;;
18102;SDS011;9178;51.120;6.192;2024-01-30T13:02:27;10.20;;;5.63;;
18102;SDS011;9178;51.120;6.192;2024-01-30T13:05:02;11.03;;;6.00;;
18102;SDS011;9178;51.120;6.192;2024-01-30T13:07:31;8.17;;;5.53;;
18102;SDS011;9178;51.120;6.192;2024-01-30T13:09:58;11.70;;;5.83;;
18102;SDS011;9178;51.120;6.192;2024-01-30T13:12:29;8.43;;;5.10;;
18102;SDS011;9178;51.120;6.192;2024-01-30T13:14:57;7.70;;;6.63;;
18102;SDS011;9178;51.120;6.192;2024-01-30T13:17:26;10.47;;;5.77;;
18102;SDS011;9178;51.120;6.192;2024-01-30T13:19:53;8.27;;;5.67;;
18102;SDS011;9178;51.120;6.192;2024-01-30T13:22:23;8.67;;;5.90;;
18102;SDS011;9178;51.120;6.192;2024-01-30T13:24:50;9.67;;;6.00;;
18102;SDS011;9178;51.120;6.192;2024-01-30T13:27:17;9.20;;;5.60;;
18102;SDS011;9178;51.120;6.192;2024-01-30T13:29:46;8.20;;;5.53;;
18102;SDS011;9178;51.120;6.192;2024-01-30T13:32:13;9.57;;;5.83;;
18102;SDS011;9178;51.120;6.192;2024-01-30T13:34:40;7.83;;;5.53;;
18102;SDS011;9178;51.120;6.192;2024-01-30T13:37:08;6.93;;;5.30;;
18102;SDS011;9178;51.120;6.192;2024-01-30T13:39:35;10.27;;;6.03;;
18102;SDS011;9178;51.120;6.192;2024-01-30T13:42:04;12.63;;;6.20;;
18102;SDS011;9178;51.120;6.192;2024-01-30T13:44:31;8.47;;;5.00;;
18102;SDS011;9178;51.120;6.192;2024-01-30T13:46:59;9.27;;;6.27;;
18102;SDS011;9178;51.120;6.192;2024-01-30T13:49:27;9.20;;;5.60;;
18102;SDS011;9178;51.120;6.192;2024-01-30T13:51:54;9.00;;;5.40;;
18102;SDS011;9178;51.120;6.192;2024-01-30T13:54:21;9.07;;;5.30;;
18102;SDS011;9178;51.120;6.192;2024-01-30T13:56:48;8.17;;;5.60;;
18102;SDS011;9178;51.120;6.192;2024-01-30T13:59:15;7.57;;;5.80;;
18102;SDS011;9178;51.120;6.192;2024-01-30T14:01:48;7.23;;;5.67;;
18102;SDS011;9178;51.120;6.192;2024-01-30T14:04:17;7.97;;;5.77;;
18102;SDS011;9178;51.120;6.192;2024-01-30T14:06:44;9.40;;;6.07;;
18102;SDS011;9178;51.120;6.192;2024-01-30T14:09:11;8.07;;;4.40;;
18102;SDS011;9178;51.120;6.192;2024-01-30T14:11:40;8.70;;;4.43;;
18102;SDS011;9178;51.120;6.192;2024-01-30T14:14:07;7.27;;;3.90;;
18102;SDS011;9178;51.120;6.192;2024-01-30T14:16:35;5.40;;;3.90;;
18102;SDS011;9178;51.120;6.192;2024-01-30T14:19:02;7.17;;;3.90;;
18102;SDS011;9178;51.120;6.192;2024-01-30T14:21:31;6.10;;;3.80;;
18102;SDS011;9178;51.120;6.192;2024-01-30T14:23:58;6.17;;;3.10;;
18102;SDS011;9178;51.120;6.192;2024-01-30T14:26:25;7.77;;;3.30;;
18102;SDS011;9178;51.120;6.192;2024-01-30T14:28:52;4.83;;;2.77;;
18102;SDS011;9178;51.120;6.192;2024-01-30T14:31:20;3.13;;;2.50;;
18102;SDS011;9178;51.120;6.192;2024-01-30T14:33:49;6.47;;;3.17;;
18102;SDS011;9178;51.120;6.192;2024-01-30T14:36:17;5.83;;;2.90;;
18102;SDS011;9178;51.120;6.192;2024-01-30T14:38:47;7.50;;;2.83;;
18102;SDS011;9178;51.120;6.192;2024-01-30T14:41:14;3.57;;;2.27;;
18102;SDS011;9178;51.120;6.192;2024-01-30T14:43:41;4.43;;;2.50;;
18102;SDS011;9178;51.120;6.192;2024-01-30T14:46:08;3.97;;;2.57;;
18102;SDS011;9178;51.120;6.192;2024-01-30T14:48:37;3.73;;;2.33;;
18102;SDS011;9178;51.120;6.192;2024-01-30T14:51:04;8.70;;;1.97;;
18102;SDS011;9178;51.120;6.192;2024-01-30T14:53:31;4.27;;;1.90;;
18102;SDS011;9178;51.120;6.192;2024-01-30T14:56:00;4.03;;;2.10;;
18102;SDS011;9178;51.120;6.192;2024-01-30T14:58:28;5.10;;;1.83;;
18102;SDS011;9178;51.120;6.192;2024-01-30T15:00:55;3.63;;;2.13;;
18102;SDS011;9178;51.120;6.192;2024-01-30T15:03:22;4.67;;;2.00;;